DLH6EW EDDN-EDDF
Flight info
| Callsign | DLH6EW |
|---|---|
| Flight time | 0h 24m |
| Altitude | 20000 |
| Route | SUKAD1G SUKAD DCT PIWAW T159 SPESA SPESA5B |
| Aircraft | A320/M-SDE3FGHIRWY/LB1 |
Departure
| Time | 2026-05-06 13:45 |
|---|---|
| Airport | Nuremberg Airport (EDDN) |
Arrival
| Time | 2026-05-06 14:10 |
|---|---|
| Airport | Frankfurt Main Airport (EDDF) |
| Time | Latitude | Longitude | Altitude | Speed | Heading |
|---|---|---|---|---|---|
| 2026-05-06 13:25 | 49.49527 | 11.07725 | 1022 ft | 0 kts | 188° |
| 2026-05-06 13:37 | 49.49552 | 11.07730 | 1025 ft | 4 kts | 188° |
| 2026-05-06 13:38 | 49.49577 | 11.07737 | 1027 ft | 2 kts | 179° |
| 2026-05-06 13:38 | 49.49588 | 11.07731 | 1025 ft | 2 kts | 109° |
| 2026-05-06 13:38 | 49.49593 | 11.07701 | 1026 ft | 2 kts | 99° |
| 2026-05-06 13:38 | 49.49594 | 11.07684 | 1027 ft | 2 kts | 101° |
| 2026-05-06 13:39 | 49.49596 | 11.07667 | 1026 ft | 2 kts | 98° |
| 2026-05-06 13:39 | 49.49597 | 11.07662 | 1025 ft | 0 kts | 98° |
| 2026-05-06 13:40 | 49.49596 | 11.07672 | 1026 ft | 2 kts | 98° |
| 2026-05-06 13:41 | 49.49593 | 11.07707 | 1025 ft | 8 kts | 98° |
| 2026-05-06 13:41 | 49.49580 | 11.07844 | 1027 ft | 17 kts | 98° |
| 2026-05-06 13:41 | 49.49560 | 11.08041 | 1028 ft | 20 kts | 98° |
| 2026-05-06 13:41 | 49.49538 | 11.08252 | 1027 ft | 16 kts | 98° |
| 2026-05-06 13:42 | 49.49551 | 11.08340 | 1029 ft | 6 kts | 37° |
| 2026-05-06 13:42 | 49.49600 | 11.08364 | 1032 ft | 8 kts | 26° |
| 2026-05-06 13:42 | 49.49612 | 11.08473 | 1034 ft | 15 kts | 98° |
| 2026-05-06 13:42 | 49.49596 | 11.08633 | 1036 ft | 15 kts | 99° |
| 2026-05-06 13:43 | 49.49577 | 11.08819 | 1037 ft | 20 kts | 98° |
| 2026-05-06 13:43 | 49.49556 | 11.09037 | 1040 ft | 23 kts | 98° |
| 2026-05-06 13:43 | 49.49532 | 11.09275 | 1044 ft | 22 kts | 98° |
| 2026-05-06 13:43 | 49.49585 | 11.09473 | 1049 ft | 20 kts | 53° |
| 2026-05-06 13:44 | 49.49667 | 11.09575 | 1052 ft | 10 kts | 9° |
| 2026-05-06 13:44 | 49.49698 | 11.09537 | 1052 ft | 0 kts | 283° |
| 2026-05-06 13:44 | 49.49698 | 11.09535 | 1052 ft | 0 kts | 279° |
| 2026-05-06 13:44 | 49.49703 | 11.09490 | 1051 ft | 16 kts | 279° |
| 2026-05-06 13:45 | 49.49762 | 11.08894 | 1041 ft | 93 kts | 278° |
| 2026-05-06 13:45 | 49.50030 | 11.06105 | 1323 ft | 166 kts | 278° |
| 2026-05-06 13:45 | 49.50194 | 11.04331 | 2067 ft | 166 kts | 278° |
| 2026-05-06 13:46 | 49.50358 | 11.02740 | 2558 ft | 176 kts | 278° |
| 2026-05-06 13:46 | 49.50540 | 11.01047 | 2894 ft | 195 kts | 278° |
| 2026-05-06 13:46 | 49.50743 | 10.99055 | 3237 ft | 218 kts | 277° |
| 2026-05-06 13:46 | 49.50941 | 10.97001 | 3764 ft | 239 kts | 276° |
| 2026-05-06 13:47 | 49.51189 | 10.94415 | 4445 ft | 261 kts | 278° |
| 2026-05-06 13:47 | 49.51451 | 10.91678 | 5291 ft | 267 kts | 276° |
| 2026-05-06 13:47 | 49.51725 | 10.88805 | 6235 ft | 271 kts | 277° |
| 2026-05-06 13:47 | 49.52003 | 10.85884 | 6617 ft | 273 kts | 276° |
| 2026-05-06 13:48 | 49.52278 | 10.83014 | 6781 ft | 275 kts | 276° |
| 2026-05-06 13:48 | 49.52557 | 10.80113 | 7592 ft | 277 kts | 276° |
| 2026-05-06 13:48 | 49.52844 | 10.77139 | 8516 ft | 279 kts | 276° |
| 2026-05-06 13:48 | 49.53103 | 10.74430 | 9316 ft | 282 kts | 276° |
| 2026-05-06 13:49 | 49.53386 | 10.71438 | 10038 ft | 291 kts | 276° |
| 2026-05-06 13:49 | 49.53688 | 10.68222 | 10299 ft | 314 kts | 276° |
| 2026-05-06 13:49 | 49.54010 | 10.64771 | 10641 ft | 332 kts | 276° |
| 2026-05-06 13:49 | 49.54342 | 10.61232 | 11314 ft | 339 kts | 276° |
| 2026-05-06 13:50 | 49.54662 | 10.57827 | 12015 ft | 343 kts | 276° |
| 2026-05-06 13:50 | 49.55220 | 10.54222 | 12747 ft | 350 kts | 287° |
| 2026-05-06 13:50 | 49.56261 | 10.50809 | 13472 ft | 358 kts | 298° |
| 2026-05-06 13:50 | 49.57657 | 10.47716 | 14107 ft | 362 kts | 303° |
| 2026-05-06 13:51 | 49.59149 | 10.44522 | 14778 ft | 365 kts | 303° |
| 2026-05-06 13:51 | 49.60543 | 10.41526 | 15386 ft | 368 kts | 303° |
| 2026-05-06 13:51 | 49.62042 | 10.38296 | 15707 ft | 370 kts | 302° |
| 2026-05-06 13:51 | 49.63538 | 10.35068 | 15776 ft | 369 kts | 302° |
| 2026-05-06 13:52 | 49.65025 | 10.31856 | 15786 ft | 368 kts | 302° |
| 2026-05-06 13:52 | 49.66482 | 10.28708 | 15783 ft | 368 kts | 302° |
| 2026-05-06 13:52 | 49.67969 | 10.25490 | 15782 ft | 368 kts | 302° |
| 2026-05-06 13:52 | 49.69457 | 10.22261 | 15784 ft | 368 kts | 302° |
| 2026-05-06 13:53 | 49.70936 | 10.19046 | 15777 ft | 368 kts | 302° |
| 2026-05-06 13:53 | 49.72435 | 10.15787 | 15773 ft | 368 kts | 302° |
| 2026-05-06 13:53 | 49.73898 | 10.12600 | 15776 ft | 368 kts | 302° |
| 2026-05-06 13:53 | 49.75381 | 10.09363 | 15774 ft | 368 kts | 302° |
| 2026-05-06 13:54 | 49.76855 | 10.06138 | 15777 ft | 367 kts | 302° |
| 2026-05-06 13:54 | 49.78332 | 10.02904 | 15775 ft | 367 kts | 302° |
| 2026-05-06 13:54 | 49.79811 | 9.99667 | 15776 ft | 367 kts | 302° |
| 2026-05-06 13:54 | 49.81260 | 9.96494 | 15658 ft | 358 kts | 302° |
| 2026-05-06 13:55 | 49.82707 | 9.93325 | 15277 ft | 353 kts | 302° |
| 2026-05-06 13:55 | 49.84112 | 9.90247 | 14863 ft | 350 kts | 302° |
| 2026-05-06 13:55 | 49.85517 | 9.87158 | 14445 ft | 347 kts | 302° |
| 2026-05-06 13:55 | 49.86909 | 9.84093 | 14038 ft | 345 kts | 302° |
| 2026-05-06 13:56 | 49.88287 | 9.81043 | 13620 ft | 342 kts | 301° |
| 2026-05-06 13:56 | 49.89433 | 9.77822 | 13164 ft | 337 kts | 291° |
| 2026-05-06 13:56 | 49.90332 | 9.74418 | 12697 ft | 334 kts | 290° |
| 2026-05-06 13:56 | 49.91194 | 9.71149 | 12265 ft | 331 kts | 290° |
| 2026-05-06 13:57 | 49.92054 | 9.67855 | 11807 ft | 328 kts | 287° |
| 2026-05-06 13:57 | 49.92610 | 9.64500 | 11370 ft | 324 kts | 280° |
| 2026-05-06 13:57 | 49.93140 | 9.61094 | 10913 ft | 322 kts | 282° |
| 2026-05-06 13:57 | 49.93687 | 9.57733 | 10475 ft | 320 kts | 282° |
| 2026-05-06 13:58 | 49.94231 | 9.54408 | 10126 ft | 314 kts | 282° |
| 2026-05-06 13:58 | 49.94740 | 9.51281 | 10002 ft | 295 kts | 282° |
| 2026-05-06 13:58 | 49.95236 | 9.48243 | 9661 ft | 280 kts | 282° |
| 2026-05-06 13:58 | 49.95715 | 9.45330 | 9242 ft | 277 kts | 282° |
| 2026-05-06 13:59 | 49.96187 | 9.42434 | 8874 ft | 275 kts | 282° |
| 2026-05-06 13:59 | 49.96650 | 9.39571 | 8468 ft | 274 kts | 282° |
| 2026-05-06 13:59 | 49.97103 | 9.36734 | 8088 ft | 273 kts | 282° |
| 2026-05-06 13:59 | 49.97412 | 9.34797 | 7817 ft | 272 kts | 282° |
| 2026-05-06 14:00 | 49.97857 | 9.32042 | 7454 ft | 271 kts | 282° |
| 2026-05-06 14:00 | 49.98321 | 9.29184 | 7085 ft | 269 kts | 282° |
| 2026-05-06 14:00 | 49.98898 | 9.26448 | 6804 ft | 268 kts | 297° |
| 2026-05-06 14:00 | 49.99862 | 9.24199 | 6762 ft | 272 kts | 303° |
| 2026-05-06 14:01 | 50.00991 | 9.21830 | 6769 ft | 273 kts | 303° |
| 2026-05-06 14:01 | 50.02151 | 9.19447 | 6766 ft | 273 kts | 304° |
| 2026-05-06 14:01 | 50.03267 | 9.17120 | 6698 ft | 273 kts | 304° |
| 2026-05-06 14:01 | 50.04403 | 9.14753 | 6316 ft | 271 kts | 304° |
| 2026-05-06 14:02 | 50.05564 | 9.12348 | 5890 ft | 270 kts | 304° |
| 2026-05-06 14:02 | 50.06688 | 9.10016 | 5476 ft | 268 kts | 304° |
| 2026-05-06 14:02 | 50.07878 | 9.07551 | 5282 ft | 257 kts | 304° |
| 2026-05-06 14:02 | 50.08848 | 9.05535 | 5082 ft | 250 kts | 304° |
| 2026-05-06 14:03 | 50.09878 | 9.03395 | 4835 ft | 244 kts | 304° |
| 2026-05-06 14:03 | 50.10815 | 9.01240 | 4580 ft | 236 kts | 294° |
| 2026-05-06 14:03 | 50.11408 | 8.98869 | 4320 ft | 228 kts | 285° |
| 2026-05-06 14:03 | 50.11868 | 8.96566 | 4085 ft | 222 kts | 284° |
| 2026-05-06 14:04 | 50.12160 | 8.93988 | 3994 ft | 206 kts | 264° |
| 2026-05-06 14:04 | 50.11910 | 8.92100 | 3996 ft | 202 kts | 248° |
| 2026-05-06 14:04 | 50.11425 | 8.90052 | 3996 ft | 201 kts | 249° |
| 2026-05-06 14:04 | 50.10947 | 8.88013 | 3999 ft | 197 kts | 248° |
| 2026-05-06 14:05 | 50.10513 | 8.86161 | 3998 ft | 180 kts | 249° |
| 2026-05-06 14:05 | 50.10095 | 8.84388 | 3818 ft | 173 kts | 248° |
| 2026-05-06 14:05 | 50.09701 | 8.82712 | 3593 ft | 167 kts | 249° |
| 2026-05-06 14:05 | 50.09313 | 8.81069 | 3382 ft | 168 kts | 249° |
| 2026-05-06 14:06 | 50.08908 | 8.79351 | 3170 ft | 166 kts | 250° |
| 2026-05-06 14:06 | 50.08509 | 8.77656 | 2950 ft | 163 kts | 248° |
| 2026-05-06 14:06 | 50.08138 | 8.76088 | 2740 ft | 165 kts | 249° |
| 2026-05-06 14:06 | 50.07742 | 8.74413 | 2528 ft | 165 kts | 250° |
| 2026-05-06 14:07 | 50.07332 | 8.72679 | 2295 ft | 164 kts | 249° |
| 2026-05-06 14:07 | 50.06939 | 8.71018 | 2080 ft | 163 kts | 250° |
| 2026-05-06 14:07 | 50.06578 | 8.69495 | 1886 ft | 148 kts | 249° |
| 2026-05-06 14:07 | 50.06235 | 8.68046 | 1696 ft | 139 kts | 250° |
| 2026-05-06 14:08 | 50.05911 | 8.66673 | 1483 ft | 135 kts | 248° |
| 2026-05-06 14:08 | 50.05595 | 8.65347 | 1288 ft | 134 kts | 247° |
| 2026-05-06 14:08 | 50.05259 | 8.63934 | 1126 ft | 137 kts | 249° |
| 2026-05-06 14:08 | 50.04929 | 8.62517 | 975 ft | 136 kts | 246° |
| 2026-05-06 14:09 | 50.04614 | 8.61174 | 751 ft | 132 kts | 246° |
| 2026-05-06 14:09 | 50.04284 | 8.59817 | 584 ft | 135 kts | 248° |
| 2026-05-06 14:09 | 50.03973 | 8.58507 | 409 ft | 132 kts | 248° |
| 2026-05-06 14:09 | 50.03913 | 8.58258 | 391 ft | 131 kts | 247° |
| 2026-05-06 14:10 | 50.03627 | 8.57073 | 358 ft | 90 kts | 250° |
| 2026-05-06 14:10 | 50.03467 | 8.56407 | 361 ft | 49 kts | 250° |
| 2026-05-06 14:10 | 50.03439 | 8.56045 | 356 ft | 26 kts | 279° |
| 2026-05-06 14:10 | 50.03460 | 8.55849 | 354 ft | 14 kts | 280° |
| 2026-05-06 14:11 | 50.03504 | 8.55706 | 355 ft | 15 kts | 336° |
| 2026-05-06 14:11 | 50.03565 | 8.55774 | 359 ft | 12 kts | 68° |
| 2026-05-06 14:11 | 50.03591 | 8.55875 | 360 ft | 9 kts | 68° |
| 2026-05-06 14:11 | 50.03637 | 8.56069 | 362 ft | 30 kts | 70° |
| 2026-05-06 14:12 | 50.03706 | 8.56365 | 359 ft | 29 kts | 70° |
| 2026-05-06 14:12 | 50.03779 | 8.56666 | 355 ft | 30 kts | 69° |
| 2026-05-06 14:12 | 50.03847 | 8.56951 | 352 ft | 24 kts | 69° |
| 2026-05-06 14:12 | 50.03900 | 8.57175 | 362 ft | 20 kts | 69° |
| 2026-05-06 14:13 | 50.03947 | 8.57368 | 359 ft | 19 kts | 70° |
| 2026-05-06 14:13 | 50.03994 | 8.57565 | 354 ft | 21 kts | 70° |
| 2026-05-06 14:13 | 50.04043 | 8.57771 | 359 ft | 20 kts | 69° |
| 2026-05-06 14:13 | 50.04090 | 8.57969 | 355 ft | 19 kts | 70° |
| 2026-05-06 14:14 | 50.04147 | 8.58134 | 353 ft | 18 kts | 41° |
| 2026-05-06 14:14 | 50.04244 | 8.58208 | 332 ft | 12 kts | 16° |
| 2026-05-06 14:14 | 50.04283 | 8.58206 | 329 ft | 1 kts | 339° |
| 2026-05-06 14:14 | 50.04283 | 8.58205 | 328 ft | 0 kts | 339° |
| 2026-05-06 14:15 | 50.04290 | 8.58201 | 328 ft | 4 kts | 339° |
| 2026-05-06 14:16 | 50.04356 | 8.58163 | 330 ft | 16 kts | 340° |
| 2026-05-06 14:16 | 50.04468 | 8.58099 | 335 ft | 17 kts | 340° |
| 2026-05-06 14:16 | 50.04571 | 8.58040 | 340 ft | 11 kts | 339° |
| 2026-05-06 14:16 | 50.04625 | 8.58009 | 349 ft | 6 kts | 339° |
| 2026-05-06 14:17 | 50.04638 | 8.58001 | 350 ft | 0 kts | 340° |
| 2026-05-06 14:18 | 50.04675 | 8.57980 | 354 ft | 10 kts | 340° |
| 2026-05-06 14:19 | 50.04767 | 8.57926 | 355 ft | 18 kts | 340° |
| 2026-05-06 14:19 | 50.04854 | 8.57816 | 358 ft | 16 kts | 290° |
| 2026-05-06 14:19 | 50.04885 | 8.57703 | 358 ft | 10 kts | 294° |
| 2026-05-06 14:19 | 50.04917 | 8.57652 | 357 ft | 6 kts | 353° |
| 2026-05-06 14:20 | 50.04952 | 8.57670 | 360 ft | 6 kts | 21° |
| 2026-05-06 14:20 | 50.04972 | 8.57682 | 364 ft | 0 kts | 21° |